Preview of NWS' New Version of Forecast
This preview is not operational and should not be used for support decisions.

Terminal Aerodrome Forecast (TAF)

Issued by National Weather Service (NWS)

                            
000
FTUS42 KKEY 150539
TAFMTH
TAF
KMTH 150539Z 1506/1606 35010KT P6SM SCT020
      TEMPO 1509/1513 35014G22KT BKN020=